Time;durP1;ratioP1;P1;durP2;ratioP2;P2;SDS_P1;SDS_P2;PMS_P1;PMS_P2;Temp;Humidity;BMP_temperature;BMP_pressure;BME280_temperature;BME280_humidity;BME280_pressure;Samples;Min_cycle;Max_cycle;Signal;HPM_P1;HPM_P2
2022/09/29 00:00:25;;;;;;;4.13;2.92;;;;;;;5.52;96.37;100046.81;5034222;28;20104;-82
2022/09/29 00:02:52;;;;;;;5.90;2.72;;;;;;;5.50;96.12;100051.75;5034650;28;20586;-82
2022/09/29 00:05:20;;;;;;;3.30;3.00;;;;;;;5.48;96.15;100050.69;5049392;28;20062;-82
2022/09/29 00:07:46;;;;;;;3.75;2.90;;;;;;;5.43;95.99;100051.97;5015205;28;20133;-82
2022/09/29 00:10:13;;;;;;;2.97;2.78;;;;;;;5.39;95.79;100047.94;4994708;28;20141;-82
2022/09/29 00:12:39;;;;;;;3.08;2.88;;;;;;;5.29;95.81;100047.06;5014409;28;20046;-82
2022/09/29 00:15:06;;;;;;;2.85;2.63;;;;;;;5.21;95.67;100051.06;5013480;28;20500;-82
2022/09/29 00:17:33;;;;;;;2.97;2.78;;;;;;;5.19;95.70;100048.13;4995428;28;20480;-83
2022/09/29 00:19:59;;;;;;;2.70;2.50;;;;;;;5.20;95.30;100047.69;5014690;28;20134;-83
2022/09/29 00:22:26;;;;;;;2.72;2.53;;;;;;;5.21;95.50;100051.06;4995819;28;20050;-82
2022/09/29 00:24:52;;;;;;;2.90;2.70;;;;;;;5.21;95.68;100046.53;4980174;28;20501;-83
2022/09/29 00:27:19;;;;;;;3.38;3.13;;;;;;;5.19;95.77;100051.50;5013571;28;20081;-82
2022/09/29 00:29:45;;;;;;;3.20;2.70;;;;;;;5.16;95.84;100051.59;4996544;28;20521;-82
2022/09/29 00:32:13;;;;;;;3.08;2.88;;;;;;;5.11;95.34;100046.81;4996163;28;20052;-83
2022/09/29 00:34:39;;;;;;;2.47;2.30;;;;;;;5.09;95.99;100051.78;5019781;28;20458;-82
2022/09/29 00:37:06;;;;;;;2.55;2.45;;;;;;;5.08;96.00;100042.38;5016084;28;20125;-82
2022/09/29 00:39:33;;;;;;;2.75;2.55;;;;;;;5.06;95.94;100034.16;5032346;28;20209;-82
2022/09/29 00:41:59;;;;;;;2.67;2.47;;;;;;;5.05;95.74;100038.69;5033815;28;20056;-82
2022/09/29 00:44:59;;;;;;;3.42;2.58;;;;;;;5.00;96.00;100032.03;5033690;28;20129;-82
2022/09/29 00:47:27;;;;;;;6.95;2.65;;;;;;;4.97;95.95;100040.75;5033688;28;20080;-81
2022/09/29 00:50:24;;;;;;;2.60;2.40;;;;;;;4.92;95.70;100041.28;5015104;28;20493;-82
2022/09/29 00:53:01;;;;;;;3.10;2.80;;;;;;;4.90;95.67;100038.31;5034281;28;20121;-82
2022/09/29 00:55:41;;;;;;;2.75;2.55;;;;;;;4.85;95.95;100046.72;5033675;28;20050;-82
2022/09/29 00:58:27;;;;;;;3.63;2.40;;;;;;;4.83;96.01;100038.50;5033651;28;20542;-82
2022/09/29 01:00:54;;;;;;;4.00;2.38;;;;;;;4.79;96.06;100047.69;5033838;28;20109;-82
2022/09/29 01:03:22;;;;;;;4.03;2.60;;;;;;;4.79;95.88;100040.50;5033617;28;20054;-82
2022/09/29 01:05:53;;;;;;;3.03;2.65;;;;;;;4.78;95.67;100043.56;5033281;28;20041;-82
2022/09/29 01:08:27;;;;;;;3.50;2.37;;;;;;;4.76;95.74;100051.13;5032942;28;20575;-82
2022/09/29 01:10:56;;;;;;;2.35;2.17;;;;;;;4.75;95.59;100049.66;5033407;28;20041;-82
2022/09/29 01:13:23;;;;;;;3.17;2.85;;;;;;;4.72;95.98;100039.94;5033249;28;20113;-82
2022/09/29 01:15:50;;;;;;;4.13;3.10;;;;;;;4.69;96.02;100047.53;5033589;28;20056;-82
2022/09/29 01:18:16;;;;;;;2.83;2.63;;;;;;;4.70;95.86;100043.00;5033277;28;20042;-81
2022/09/29 01:21:07;;;;;;;3.10;2.80;;;;;;;4.64;95.80;100053.31;5033060;28;20111;-82
2022/09/29 01:23:54;;;;;;;3.03;2.83;;;;;;;4.62;95.91;100046.97;5031463;28;20514;-82
2022/09/29 01:26:55;;;;;;;2.83;2.63;;;;;;;4.59;96.05;100047.78;5033191;28;20069;-82
2022/09/29 01:29:38;;;;;;;3.05;2.60;;;;;;;4.58;96.39;100044.41;5032899;28;20523;-82
2022/09/29 01:32:42;;;;;;;2.63;2.42;;;;;;;4.56;96.20;100040.69;5033121;28;20046;-82
2022/09/29 01:35:21;;;;;;;3.20;2.80;;;;;;;4.49;96.14;100048.78;5032669;28;20092;-82
2022/09/29 01:38:25;;;;;;;3.15;2.90;;;;;;;4.43;96.22;100043.25;5032939;28;20074;-82
2022/09/29 01:41:05;;;;;;;2.90;2.67;;;;;;;4.37;96.29;100052.09;5032476;28;20096;-82
2022/09/29 01:43:39;;;;;;;2.58;2.33;;;;;;;4.34;96.46;100049.13;5031376;28;20137;-82
2022/09/29 01:46:11;;;;;;;2.78;2.60;;;;;;;4.32;96.55;100045.44;5033212;28;20518;-82
2022/09/29 01:48:44;;;;;;;2.55;2.35;;;;;;;4.32;96.47;100055.97;5014969;28;20049;-82
2022/09/29 01:51:19;;;;;;;2.80;2.60;;;;;;;4.32;96.28;100051.44;5033201;28;20042;-82
2022/09/29 01:53:53;;;;;;;3.03;2.70;;;;;;;4.31;96.24;100054.50;5015012;28;20050;-82
2022/09/29 01:56:28;;;;;;;3.25;2.50;;;;;;;4.29;96.05;100049.63;5032511;28;20129;-82
2022/09/29 01:58:59;;;;;;;3.67;2.50;;;;;;;4.27;95.87;100051.19;5031180;28;20562;-82
2022/09/29 02:01:32;;;;;;;2.83;2.63;;;;;;;4.25;95.89;100054.25;5032869;28;20074;-82
2022/09/29 02:04:03;;;;;;;3.47;2.45;;;;;;;4.20;96.02;100052.09;5032626;28;20129;-82
2022/09/29 02:06:36;;;;;;;6.47;2.67;;;;;;;4.19;96.11;100045.34;5030763;28;20050;-82
2022/09/29 02:09:10;;;;;;;3.17;2.90;;;;;;;4.19;96.24;100055.88;5014719;28;20495;-82
2022/09/29 02:11:40;;;;;;;2.75;2.55;;;;;;;4.19;96.27;100049.88;5031761;28;20570;-82
2022/09/29 02:14:11;;;;;;;3.83;3.13;;;;;;;4.13;96.08;100057.53;5032755;28;20081;-82
2022/09/29 02:16:46;;;;;;;5.43;3.10;;;;;;;4.06;95.76;100059.56;5014690;28;20050;-82
2022/09/29 02:19:18;;;;;;;2.97;2.78;;;;;;;4.06;96.38;100059.56;5032561;28;20042;-82
2022/09/29 02:21:45;;;;;;;3.33;3.03;;;;;;;4.07;96.36;100058.44;5031047;28;20127;-82
2022/09/29 02:24:12;;;;;;;4.88;2.95;;;;;;;4.06;96.56;100054.31;5014418;28;20140;-82
2022/09/29 02:26:40;;;;;;;3.38;3.10;;;;;;;4.05;96.40;100052.81;5032429;28;20046;-82
2022/09/29 02:29:07;;;;;;;3.60;3.30;;;;;;;3.99;96.24;100047.34;5032680;28;20125;-82
2022/09/29 02:31:36;;;;;;;3.25;3.05;;;;;;;3.98;96.58;100049.22;5031626;28;20076;-81
2022/09/29 02:34:04;;;;;;;3.05;2.85;;;;;;;3.99;96.26;100044.69;5014231;28;20034;-82
2022/09/29 02:37:03;;;;;;;3.42;3.03;;;;;;;3.99;96.37;100050.72;5030844;28;20093;-82
2022/09/29 02:40:01;;;;;;;3.90;3.13;;;;;;;3.98;96.41;100048.47;5014279;28;20234;-81
2022/09/29 02:42:49;;;;;;;4.13;3.20;;;;;;;3.97;96.34;100052.28;5031916;28;20164;-82
2022/09/29 02:45:34;;;;;;;2.80;2.60;;;;;;;3.96;96.28;100051.53;5032284;28;20077;-81
2022/09/29 02:48:22;;;;;;;2.80;2.60;;;;;;;3.97;96.24;100054.91;5030446;28;20050;-82
2022/09/29 02:50:55;;;;;;;4.05;3.20;;;;;;;3.94;96.54;100050.44;5033264;28;20073;-81
2022/09/29 02:53:39;;;;;;;3.22;3.03;;;;;;;3.92;96.36;100050.13;5035570;28;20042;-82
2022/09/29 02:56:15;;;;;;;3.58;3.00;;;;;;;3.90;96.54;100052.41;5035755;28;20149;-81
2022/09/29 02:58:50;;;;;;;4.13;3.13;;;;;;;3.85;96.49;100053.66;5035636;28;20092;-82
2022/09/29 03:01:17;;;;;;;3.22;3.03;;;;;;;3.82;96.36;100054.47;5034776;28;20121;-82
2022/09/29 03:03:43;;;;;;;3.38;3.08;;;;;;;3.81;96.44;100049.59;5035378;28;20045;-82
2022/09/29 03:06:12;;;;;;;4.85;3.40;;;;;;;3.80;96.47;100053.38;5035548;28;20100;-82
2022/09/29 03:08:38;;;;;;;5.85;3.50;;;;;;;3.80;96.70;100056.03;5035082;28;20133;-82
2022/09/29 03:11:05;;;;;;;6.47;3.88;;;;;;;3.77;96.59;100051.56;5035288;28;20121;-82
2022/09/29 03:13:31;;;;;;;5.63;4.00;;;;;;;3.66;96.51;100049.91;5033572;28;20050;-82
2022/09/29 03:15:58;;;;;;;3.90;3.40;;;;;;;3.65;97.00;100055.56;5034723;28;20455;-81
2022/09/29 03:18:24;;;;;;;4.30;3.83;;;;;;;3.64;96.89;100051.44;5034957;28;20082;-81
2022/09/29 03:20:53;;;;;;;4.22;3.75;;;;;;;3.62;96.78;100045.84;5033893;28;20057;-81
2022/09/29 03:23:20;;;;;;;7.53;3.67;;;;;;;3.63;97.09;100052.59;5034991;28;20081;-81
2022/09/29 03:25:46;;;;;;;4.30;3.90;;;;;;;3.61;97.01;100055.63;5033879;28;20069;-81
2022/09/29 03:28:15;;;;;;;7.68;3.70;;;;;;;3.59;96.89;100054.59;5033150;28;20056;-81
2022/09/29 03:30:42;;;;;;;11.80;3.97;;;;;;;3.56;97.06;100050.13;5016677;28;20144;-81
2022/09/29 03:33:08;;;;;;;12.20;4.00;;;;;;;3.53;96.78;100053.59;5034977;28;20129;-82
2022/09/29 03:35:34;;;;;;;9.20;3.45;;;;;;;3.47;97.21;100058.59;5017192;28;20116;-81
2022/09/29 03:38:02;;;;;;;16.33;4.38;;;;;;;3.46;97.04;100058.97;5033578;28;20077;-82
2022/09/29 03:40:28;;;;;;;20.80;4.15;;;;;;;3.38;97.17;100053.13;5034420;28;20556;-81
2022/09/29 03:42:55;;;;;;;6.85;3.88;;;;;;;3.37;97.61;100058.78;5034879;28;20128;-81
2022/09/29 03:45:21;;;;;;;3.65;3.35;;;;;;;3.34;97.33;100060.34;5015613;28;20109;-81
2022/09/29 03:47:48;;;;;;;4.53;4.00;;;;;;;3.35;97.32;100062.56;5035019;28;20050;-82
2022/09/29 03:50:15;;;;;;;11.77;3.80;;;;;;;3.36;97.49;100068.56;5034687;28;20126;-80
2022/09/29 03:52:41;;;;;;;4.18;3.75;;;;;;;3.36;97.44;100060.69;5034956;28;20443;-82
2022/09/29 03:55:08;;;;;;;4.20;3.80;;;;;;;3.37;97.29;100067.41;5016748;28;20620;-82
2022/09/29 03:57:34;;;;;;;18.73;4.03;;;;;;;3.38;97.47;100066.28;5032689;28;20137;-82
2022/09/29 04:00:02;;;;;;;14.20;4.03;;;;;;;3.38;97.65;100065.53;5034346;28;20124;-82
2022/09/29 04:02:34;;;;;;;6.13;3.83;;;;;;;3.38;97.93;100079.44;5014950;28;20057;-83
2022/09/29 04:05:01;;;;;;;7.40;4.30;;;;;;;3.41;98.11;100075.25;5034576;28;20122;-82
2022/09/29 04:07:27;;;;;;;18.30;4.47;;;;;;;3.42;98.11;100076.72;5034153;28;20197;-82
2022/09/29 04:09:53;;;;;;;10.57;4.50;;;;;;;3.42;98.23;100074.84;5016304;28;20069;-82
2022/09/29 04:12:20;;;;;;;18.42;4.90;;;;;;;3.37;98.26;100088.47;5034107;28;20125;-82
2022/09/29 04:14:46;;;;;;;11.55;4.22;;;;;;;3.35;98.54;100088.13;5033847;28;20049;-82
2022/09/29 04:17:13;;;;;;;6.93;3.85;;;;;;;3.35;98.90;100086.25;5033982;28;20121;-82
2022/09/29 04:19:39;;;;;;;5.93;4.13;;;;;;;3.35;98.62;100088.88;5034428;28;20078;-82
2022/09/29 04:22:06;;;;;;;14.88;4.30;;;;;;;3.33;98.63;100085.16;5034446;28;20052;-82
2022/09/29 04:24:32;;;;;;;5.88;4.20;;;;;;;3.29;98.74;100087.84;4999444;28;20503;-82
2022/09/29 04:26:59;;;;;;;10.15;4.22;;;;;;;3.32;98.72;100088.94;5034115;28;20113;-82
2022/09/29 04:29:25;;;;;;;13.57;3.97;;;;;;;3.31;98.89;100092.72;5033537;28;20069;-82
2022/09/29 04:31:51;;;;;;;10.27;4.13;;;;;;;3.30;98.81;100094.59;5032559;28;20565;-82
2022/09/29 04:34:19;;;;;;;7.38;3.97;;;;;;;3.28;98.95;100096.91;4999702;28;20042;-82
2022/09/29 04:36:45;;;;;;;3.90;3.60;;;;;;;3.27;98.91;100094.66;5014934;28;20050;-82
2022/09/29 04:39:13;;;;;;;7.97;4.00;;;;;;;3.24;98.81;100092.84;5032266;28;20050;-82
2022/09/29 04:41:40;;;;;;;6.72;4.03;;;;;;;3.21;98.67;100104.91;5016570;28;20105;-82
2022/09/29 04:44:06;;;;;;;14.82;3.50;;;;;;;3.16;98.50;100107.28;5015952;28;20572;-82
2022/09/29 04:46:33;;;;;;;6.22;4.22;;;;;;;3.14;98.51;100105.06;5033558;28;20048;-82
2022/09/29 04:48:59;;;;;;;14.90;4.00;;;;;;;3.15;98.33;100105.81;5033746;28;20069;-82
2022/09/29 04:51:26;;;;;;;16.95;3.67;;;;;;;3.12;98.31;100102.09;5033517;28;20045;-82
2022/09/29 04:53:52;;;;;;;16.42;3.72;;;;;;;3.03;98.39;100106.41;5033725;28;20042;-82
2022/09/29 04:56:19;;;;;;;5.50;3.58;;;;;;;2.99;98.26;100104.56;5033039;28;20475;-82
2022/09/29 04:58:45;;;;;;;3.78;3.47;;;;;;;2.99;98.25;100112.47;5033872;28;20857;-82
2022/09/29 05:01:12;;;;;;;11.95;3.70;;;;;;;3.00;98.35;100105.31;5033415;28;20403;-82
2022/09/29 05:03:39;;;;;;;7.38;3.40;;;;;;;3.00;98.33;100111.31;5033444;28;20414;-81
2022/09/29 05:06:07;;;;;;;18.30;3.97;;;;;;;2.98;98.16;100108.34;5015470;28;20163;-82
2022/09/29 05:08:34;;;;;;;6.72;3.78;;;;;;;2.94;97.92;100112.16;5032848;28;20062;-81
2022/09/29 05:11:05;;;;;;;4.10;3.70;;;;;;;2.93;97.87;100111.44;5033116;28;20046;-82
2022/09/29 05:13:32;;;;;;;6.70;3.50;;;;;;;2.92;97.90;100115.19;5032856;28;20493;-82
2022/09/29 05:16:26;;;;;;;6.10;3.80;;;;;;;2.87;97.72;100120.91;5033202;28;20765;-85
2022/09/29 05:19:01;;;;;;;16.10;4.00;;;;;;;2.82;97.84;100121.38;5033136;28;20053;-82
2022/09/29 05:21:27;;;;;;;22.00;3.95;;;;;;;2.80;97.40;100123.66;5032880;28;20070;-82
2022/09/29 05:23:55;;;;;;;13.48;3.63;;;;;;;2.79;97.63;100119.56;5033296;28;20045;-82
2022/09/29 05:26:22;;;;;;;7.82;3.33;;;;;;;2.80;97.45;100125.56;5033173;28;20046;-83
2022/09/29 05:28:49;;;;;;;8.60;4.10;;;;;;;2.74;97.64;100127.91;5033644;28;20537;-86
2022/09/29 05:31:16;;;;;;;8.18;3.88;;;;;;;2.71;97.69;100126.09;5033581;28;20046;-80
2022/09/29 05:33:43;;;;;;;8.25;3.95;;;;;;;2.71;97.51;100128.72;5032819;28;20180;-81
2022/09/29 05:36:11;;;;;;;6.32;3.83;;;;;;;2.70;97.47;100137.00;5033135;28;20077;-81
2022/09/29 05:38:38;;;;;;;8.20;3.88;;;;;;;2.72;97.78;100140.72;5032935;28;20121;-79
2022/09/29 05:41:08;;;;;;;8.90;4.18;;;;;;;2.70;97.84;100148.25;5032323;28;20120;-80
2022/09/29 05:43:35;;;;;;;9.25;4.88;;;;;;;2.74;97.99;100141.06;5015207;28;20065;-79
2022/09/29 05:46:03;;;;;;;5.10;4.07;;;;;;;2.80;98.00;100146.59;5033845;28;20149;-79
2022/09/29 05:48:30;;;;;;;9.25;4.18;;;;;;;2.81;98.22;100148.81;5016320;28;20049;-78
2022/09/29 05:50:58;;;;;;;6.45;4.25;;;;;;;2.83;98.11;100157.03;5033065;28;20502;-81
2022/09/29 05:53:25;;;;;;;9.85;4.38;;;;;;;2.85;98.27;100156.63;5034650;28;20068;-80
2022/09/29 05:55:51;;;;;;;17.35;4.75;;;;;;;2.86;98.40;100158.88;5019001;28;20141;-80
2022/09/29 05:58:18;;;;;;;6.80;3.97;;;;;;;2.90;98.54;100159.56;5020973;28;21019;-85
2022/09/29 06:00:45;;;;;;;13.50;4.65;;;;;;;2.92;98.68;100157.28;5035892;28;20050;-82
2022/09/29 06:03:11;;;;;;;13.43;4.18;;;;;;;2.94;99.14;100159.50;5042881;28;20050;-81
2022/09/29 06:05:39;;;;;;;21.40;5.00;;;;;;;2.95;99.13;100169.63;5039599;28;20153;-83
2022/09/29 06:08:05;;;;;;;10.75;4.60;;;;;;;2.98;99.29;100166.19;5035036;28;20553;-81
2022/09/29 06:10:32;;;;;;;16.35;4.85;;;;;;;2.98;99.43;100166.19;5015737;28;20050;-81
2022/09/29 06:13:02;;;;;;;10.65;5.15;;;;;;;2.99;99.63;100169.56;5018455;28;20499;-83
2022/09/29 06:15:28;;;;;;;11.82;5.47;;;;;;;3.03;99.77;100166.88;5017427;28;20046;-83
2022/09/29 06:17:56;;;;;;;11.73;5.50;;;;;;;3.11;99.92;100171.63;5016141;28;20534;-81
2022/09/29 06:20:23;;;;;;;18.85;5.10;;;;;;;3.13;100.00;100171.97;5034442;28;20064;-84
2022/09/29 06:22:54;;;;;;;11.10;5.35;;;;;;;3.20;100.00;100169.19;5032599;28;20162;-81
2022/09/29 06:25:21;;;;;;;24.67;5.90;;;;;;;3.26;100.00;100178.09;5033581;28;20145;-81
2022/09/29 06:27:47;;;;;;;19.27;6.40;;;;;;;3.34;100.00;100184.00;5019362;28;20056;-82
2022/09/29 06:30:14;;;;;;;50.70;8.02;;;;;;;3.40;100.00;100181.63;5036036;28;20081;-80
2022/09/29 06:32:41;;;;;;;42.40;6.50;;;;;;;3.41;100.00;100173.34;5036968;28;20046;-80
2022/09/29 06:37:55;;;;;;;9.57;6.00;;;;;;;3.57;100.00;100191.84;5040081;28;20081;-82
2022/09/29 06:40:22;;;;;;;5.75;5.25;;;;;;;3.68;100.00;100189.00;5041368;28;20085;-91
2022/09/29 06:42:49;;;;;;;44.78;6.10;;;;;;;3.74;100.00;100184.75;5038747;28;20048;-82
2022/09/29 06:45:15;;;;;;;15.82;5.43;;;;;;;3.80;100.00;100193.66;5037351;28;20448;-83
2022/09/29 06:47:47;;;;;;;;;;;;;;;3.85;100.00;100187.19;5037880;28;20514;-83
2022/09/29 06:50:13;;;;;;;16.92;5.28;;;;;;;3.93;100.00;100197.19;5037543;28;19929;-82
2022/09/29 06:52:51;;;;;;;62.40;6.15;;;;;;;4.05;100.00;100200.31;5040825;28;20046;-83
2022/09/29 06:55:30;;;;;;;32.13;5.55;;;;;;;4.11;100.00;100199.44;5037670;28;20042;-83
2022/09/29 06:57:57;;;;;;;36.30;5.55;;;;;;;4.16;100.00;100200.84;5036673;28;20117;-82
2022/09/29 07:00:30;;;;;;;19.55;5.57;;;;;;;4.19;100.00;100206.06;5038101;28;20467;-82
2022/09/29 07:02:56;;;;;;;9.80;5.55;;;;;;;4.25;100.00;100214.22;5037393;28;20070;-83
2022/09/29 07:05:23;;;;;;;20.88;6.18;;;;;;;4.25;100.00;100209.69;5038326;28;20229;-83
2022/09/29 07:07:49;;;;;;;18.67;7.15;;;;;;;4.33;100.00;100212.94;5039405;28;20106;-83
2022/09/29 07:10:19;;;;;;;48.30;7.07;;;;;;;4.46;100.00;100208.50;5008344;28;20128;-83
2022/09/29 07:12:46;;;;;;;37.78;7.55;;;;;;;4.54;100.00;100215.09;5036370;28;20108;-83
2022/09/29 07:15:12;;;;;;;50.13;8.18;;;;;;;4.63;100.00;100206.63;5036696;28;20566;-83
2022/09/29 07:17:39;;;;;;;108.43;8.25;;;;;;;4.66;100.00;100221.63;5038752;28;20129;-83
2022/09/29 07:20:06;;;;;;;71.38;7.55;;;;;;;4.68;100.00;100224.59;5042357;28;20124;-83
2022/09/29 07:22:32;;;;;;;54.45;7.80;;;;;;;4.72;100.00;100224.50;5040992;28;20917;-84
2022/09/29 07:24:59;;;;;;;33.78;6.78;;;;;;;4.73;100.00;100226.75;5039710;28;20564;-84
2022/09/29 07:27:27;;;;;;;28.40;6.20;;;;;;;4.77;100.00;100226.66;5021116;28;20046;-83
2022/09/29 07:29:53;;;;;;;41.30;6.80;;;;;;;4.76;100.00;100235.72;5039901;28;20073;-83
2022/09/29 07:32:31;;;;;;;24.83;6.18;;;;;;;4.78;100.00;100238.69;5041866;28;20046;-83
2022/09/29 07:34:58;;;;;;;34.33;7.10;;;;;;;4.83;100.00;100241.56;5040038;28;20525;-84
2022/09/29 07:37:29;;;;;;;18.38;6.97;;;;;;;4.90;100.00;100246.69;5043641;28;20536;-84
2022/09/29 07:39:55;;;;;;;54.28;6.80;;;;;;;4.98;100.00;100242.72;5045883;28;20116;-83
2022/09/29 07:42:22;;;;;;;51.40;7.35;;;;;;;5.09;100.00;100242.47;5041017;28;20482;-84
2022/09/29 07:44:55;;;;;;;89.40;8.85;;;;;;;5.18;100.00;100253.19;5037925;28;20050;-83
2022/09/29 07:47:21;;;;;;;76.18;9.18;;;;;;;5.24;100.00;100248.16;5036691;28;20084;-84
2022/09/29 07:49:48;;;;;;;26.52;9.52;;;;;;;5.29;100.00;100252.94;5037146;28;20097;-84
2022/09/29 07:52:14;;;;;;;28.02;9.88;;;;;;;5.38;100.00;100255.72;5036790;28;20087;-84
2022/09/29 07:54:41;;;;;;;24.10;10.27;;;;;;;5.46;100.00;100261.56;5037482;28;20598;-84
2022/09/29 07:57:07;;;;;;;42.00;9.60;;;;;;;5.52;100.00;100262.56;5036128;28;20085;-84
2022/09/29 07:59:33;;;;;;;23.13;9.60;;;;;;;5.61;100.00;100273.25;5034122;28;20056;-84
2022/09/29 08:02:01;;;;;;;21.30;9.98;;;;;;;5.71;100.00;100272.22;5017518;28;20554;-84
2022/09/29 08:04:28;;;;;;;16.55;12.02;;;;;;;5.88;100.00;100278.22;5035359;28;20073;-84
2022/09/29 08:06:55;;;;;;;19.17;11.70;;;;;;;6.01;100.00;100273.72;5034447;28;20573;-84
2022/09/29 08:09:21;;;;;;;28.17;13.32;;;;;;;6.11;100.00;100283.28;5034757;28;20145;-84
2022/09/29 08:12:01;;;;;;;22.15;13.45;;;;;;;6.21;100.00;100290.19;5035344;28;20121;-84
2022/09/29 08:14:34;;;;;;;23.45;13.98;;;;;;;6.31;100.00;100291.78;5017245;28;20108;-84
2022/09/29 08:17:00;;;;;;;45.30;13.80;;;;;;;6.35;100.00;100287.16;5035048;28;20058;-84
2022/09/29 08:19:27;;;;;;;21.98;13.82;;;;;;;6.39;100.00;100292.34;5034593;28;20042;-84
2022/09/29 08:21:53;;;;;;;36.90;14.32;;;;;;;6.49;100.00;100293.91;5035041;28;20132;-84
2022/09/29 08:24:20;;;;;;;31.00;15.50;;;;;;;6.57;100.00;100294.47;5035074;28;20542;-84
2022/09/29 08:26:46;;;;;;;29.92;15.48;;;;;;;6.66;100.00;100297.22;5033808;28;20038;-84
2022/09/29 08:29:13;;;;;;;38.08;16.77;;;;;;;6.75;100.00;100307.91;5033596;28;20133;-85
2022/09/29 08:31:42;;;;;;;24.52;16.42;;;;;;;6.83;100.00;100308.44;5034892;28;20062;-85
2022/09/29 08:34:09;;;;;;;36.65;16.48;;;;;;;6.91;100.00;100307.78;5034403;28;20487;-85
2022/09/29 08:36:36;;;;;;;23.38;16.63;;;;;;;6.97;100.00;100319.34;5035152;28;20554;-84
2022/09/29 08:39:02;;;;;;;26.77;15.27;;;;;;;7.09;100.00;100315.22;5017073;28;20050;-85
2022/09/29 08:41:59;;;;;;;23.77;15.70;;;;;;;7.17;100.00;100323.69;5003376;28;20065;-85
2022/09/29 08:44:36;;;;;;;32.83;14.57;;;;;;;7.31;100.00;100325.88;5035035;28;20042;-85
2022/09/29 08:47:19;;;;;;;44.78;16.25;;;;;;;7.40;100.00;100325.97;5037599;28;20433;-85
2022/09/29 08:49:51;;;;;;;29.13;16.20;;;;;;;7.46;100.00;100334.09;5036231;28;20975;-85
2022/09/29 08:52:23;;;;;;;36.03;17.27;;;;;;;7.55;100.00;100331.56;5042030;28;20166;-85
2022/09/29 08:54:57;;;;;;;32.55;16.23;;;;;;;7.56;100.00;100338.31;5045118;28;20786;-84
2022/09/29 08:57:24;;;;;;;25.15;16.60;;;;;;;7.62;100.00;100341.88;5040037;28;20141;-85
2022/09/29 08:59:54;;;;;;;32.80;17.77;;;;;;;7.75;100.00;100341.88;5037382;28;20084;-85
2022/09/29 09:02:30;;;;;;;24.48;16.00;;;;;;;7.79;100.00;100340.59;5034657;28;20525;-85
2022/09/29 09:05:31;;;;;;;33.13;16.88;;;;;;;7.94;100.00;100346.16;5016112;28;20049;-85
2022/09/29 09:08:32;;;;;;;40.85;17.48;;;;;;;8.04;100.00;100351.06;5034222;28;20078;-86
2022/09/29 09:11:07;;;;;;;27.73;17.92;;;;;;;8.12;100.00;100345.53;5034542;28;20589;-85
2022/09/29 09:14:03;;;;;;;47.28;18.25;;;;;;;8.16;100.00;100351.44;5017180;28;20077;-85
2022/09/29 09:17:02;;;;;;;24.52;18.15;;;;;;;8.21;100.00;100359.59;5017108;28;20530;-85
2022/09/29 09:19:54;;;;;;;28.02;19.17;;;;;;;8.32;100.00;100362.66;4999757;28;20058;-85
2022/09/29 09:22:23;;;;;;;30.35;19.85;;;;;;;8.39;99.79;100358.28;5034371;28;20049;-85
2022/09/29 09:24:57;;;;;;;28.58;20.23;;;;;;;8.46;99.96;100361.41;5033923;28;20569;-85
2022/09/29 09:27:37;;;;;;;28.90;21.13;;;;;;;8.56;99.69;100359.53;5033990;28;20125;-85
2022/09/29 09:30:11;;;;;;;29.08;20.83;;;;;;;8.75;100.00;100361.13;5034088;28;20061;-86
2022/09/29 09:32:45;;;;;;;28.33;21.77;;;;;;;8.84;100.00;100358.50;5032601;28;20118;-85
2022/09/29 09:35:30;;;;;;;31.00;23.10;;;;;;;8.93;99.76;100355.88;5034833;28;20048;-85
2022/09/29 09:38:03;;;;;;;31.70;21.92;;;;;;;9.05;99.56;100362.28;5035246;28;20574;-85
2022/09/29 09:40:39;;;;;;;37.65;22.17;;;;;;;9.18;98.91;100365.56;5034085;28;20050;-86
2022/09/29 09:43:19;;;;;;;34.60;23.40;;;;;;;9.34;98.94;100364.56;5034296;28;20546;-86
2022/09/29 09:46:11;;;;;;;32.97;23.30;;;;;;;9.47;97.21;100367.09;5034081;28;20052;-85
2022/09/29 09:48:41;;;;;;;;;;;;;;;9.69;98.15;100365.78;5033888;28;20046;-85
2022/09/29 09:51:36;;;;;;;31.45;22.58;;;;;;;9.77;97.55;100362.84;5033705;28;19928;-85
2022/09/29 09:54:14;;;;;;;32.75;23.75;;;;;;;9.81;96.02;100366.09;5033475;28;20137;-85
2022/09/29 09:57:02;;;;;;;34.08;24.88;;;;;;;9.76;96.13;100364.03;5035042;28;20050;-85
2022/09/29 09:59:44;;;;;;;31.80;24.67;;;;;;;9.91;96.60;100364.94;5033816;28;20141;-85
2022/09/29 10:02:20;;;;;;;;;;;;;;;10.09;96.14;100370.25;5036632;28;20046;-86
2022/09/29 10:04:50;;;;;;;33.03;23.98;;;;;;;10.49;95.50;100366.66;5019957;28;19972;-83
2022/09/29 10:07:19;;;;;;;32.67;25.48;;;;;;;10.72;94.33;100365.28;5039342;28;20058;-82
2022/09/29 10:09:46;;;;;;;37.72;26.55;;;;;;;10.80;93.62;100369.06;5038568;28;20573;-83
2022/09/29 10:12:18;;;;;;;36.45;28.10;;;;;;;10.80;93.57;100369.06;5056701;28;20056;-84
2022/09/29 10:15:02;;;;;;;39.60;27.35;;;;;;;10.84;92.71;100359.75;5057015;28;20136;-82
2022/09/29 10:17:36;;;;;;;33.10;25.52;;;;;;;10.92;92.21;100366.22;5056932;28;20088;-84
2022/09/29 10:20:05;;;;;;;37.88;26.13;;;;;;;10.96;91.30;100366.06;5056845;28;20081;-87
2022/09/29 10:22:33;;;;;;;43.35;26.35;;;;;;;11.03;92.50;100371.81;5056981;28;20116;-83
2022/09/29 10:25:18;;;;;;;32.55;25.42;;;;;;;11.10;91.79;100370.00;5057491;28;20815;-89
2022/09/29 10:27:52;;;;;;;34.20;25.38;;;;;;;11.20;91.17;100372.16;5056899;28;20049;-89
2022/09/29 10:30:22;;;;;;;36.75;27.30;;;;;;;11.26;90.27;100369.63;5056815;28;20204;-88
2022/09/29 10:32:55;;;;;;;39.13;24.85;;;;;;;11.34;90.78;100373.44;5055493;28;20074;-85
2022/09/29 10:35:42;;;;;;;32.95;24.42;;;;;;;11.39;90.43;100374.72;5056738;28;20120;-85
2022/09/29 10:38:24;;;;;;;43.55;26.20;;;;;;;11.43;90.42;100369.97;5056659;28;20121;-85
2022/09/29 10:41:08;;;;;;;32.58;24.67;;;;;;;11.48;90.90;100378.09;5056736;28;20132;-86
2022/09/29 10:43:38;;;;;;;33.58;24.33;;;;;;;11.55;90.55;100369.75;5056244;28;20045;-85
2022/09/29 10:46:29;;;;;;;33.25;24.17;;;;;;;11.63;89.31;100373.53;5055687;28;20080;-86
2022/09/29 10:49:13;;;;;;;36.80;23.90;;;;;;;11.72;90.57;100378.06;5056031;28;20053;-82
2022/09/29 10:51:52;;;;;;;30.95;23.67;;;;;;;11.77;89.91;100377.47;5038579;28;20057;-86
2022/09/29 10:54:18;;;;;;;29.63;21.55;;;;;;;11.74;88.13;100377.63;5038165;28;20606;-85
2022/09/29 10:56:48;;;;;;;32.17;22.42;;;;;;;11.78;87.94;100370.94;5056058;28;20053;-81
2022/09/29 10:59:16;;;;;;;33.05;22.30;;;;;;;11.87;88.34;100378.16;5055572;28;20550;-85
2022/09/29 11:01:48;;;;;;;29.50;21.88;;;;;;;11.99;89.62;100380.56;5056029;28;20498;-86
2022/09/29 11:04:26;;;;;;;31.00;22.20;;;;;;;12.05;88.00;100377.97;5055958;28;20105;-88
2022/09/29 11:06:53;;;;;;;26.98;17.85;;;;;;;12.06;86.30;100376.06;5056398;28;20430;-84
2022/09/29 11:09:19;;;;;;;20.40;15.13;;;;;;;12.10;84.63;100377.34;5055606;28;20541;-89
2022/09/29 11:11:46;;;;;;;21.38;16.55;;;;;;;12.09;84.42;100367.88;5056412;28;20502;-88
2022/09/29 11:14:35;;;;;;;24.77;18.58;;;;;;;12.09;84.78;100375.88;5055414;28;20137;-85
2022/09/29 11:17:19;;;;;;;22.27;15.77;;;;;;;12.12;84.13;100369.63;5037836;28;20137;-90
2022/09/29 11:19:46;;;;;;;18.85;14.23;;;;;;;12.15;81.85;100374.06;5056290;28;20046;-85
2022/09/29 11:22:42;;;;;;;376.10;277.40;;;;;;;12.24;82.27;100375.91;5056308;28;20132;-87
2022/09/29 11:25:14;;;;;;;26.77;17.90;;;;;;;12.38;82.79;100379.78;5054976;28;20099;-88
2022/09/29 11:27:47;;;;;;;21.95;16.67;;;;;;;12.46;82.75;100380.88;5054237;28;20053;-86
2022/09/29 11:30:20;;;;;;;25.65;17.05;;;;;;;12.51;82.01;100383.63;5037772;28;20073;-85
2022/09/29 11:33:04;;;;;;;23.00;16.00;;;;;;;12.58;82.04;100379.88;5054857;28;20120;-86
2022/09/29 11:35:39;;;;;;;17.73;13.82;;;;;;;12.65;81.44;100382.16;5055670;28;20661;-87
2022/09/29 11:38:32;;;;;;;16.90;13.98;;;;;;;12.60;81.34;100383.53;5057318;28;20492;-86
2022/09/29 11:41:09;;;;;;;15.80;12.40;;;;;;;12.65;79.42;100382.91;5054700;28;20056;-84
2022/09/29 11:43:54;;;;;;;16.90;11.65;;;;;;;12.57;80.02;100386.41;5054209;28;20128;-83
2022/09/29 11:46:50;;;;;;;16.25;8.85;;;;;;;12.47;78.06;100388.41;5054969;28;20046;-87
2022/09/29 11:49:31;;;;;;;11.70;9.25;;;;;;;12.60;76.61;100385.47;5054836;28;20076;-86